Pensacola Regional Airport Pensacola US
ICAO: KPNS
IATA: PNS
Category: Medium
Scheduled Services: Yes

Elevation: 121 ft
TransAlt. 18000 ft.

Airport Communications:
APP/DEP:118.6
ATIS:121.25
CLNC DEL:123.725
CTAF:119.9
GND:121.9
GAINESVILLE RDO:122.2
TWR:119.9
UNICOM:122.95

KPNS Zoom In..

Runways:

(A) RW 08 length 7000 ft width 150 ft
LOC 110.95 / hdg 80

(B) RW 17 length 7004 ft width 150 ft
ILS 111.10 / hdg 169

(C) RW 26 length 7000 ft width 150 ft
LOC 110.95 / hdg 260

(D) RW 35 length 7004 ft width 150 ft
LOC 110.95 / hdg 349

Location; KPNS
Day. 25 / Time. 11.53 Zulu
* Altimeter: 30.02
* Temperature: 15° c. 59°f.
* Wind from: 320° Speed 06 kn.
Dewpoint: 13° c.
Visibility: 10 Statute Miles.
Clouds: Clear (automated report).

KPNS 251153Z 32006KT 10SM CLR 15/13 A3002 RMK AO2 SLP167 T01500128 10156 20139 53012


Wind From 320°
Speed 06 kn.

  YouTube Music Video
 
jpsmedia.com for Web Design  worldairports.se 2018   terms of use